Time;durP1;ratioP1;P1;durP2;ratioP2;P2;SDS_P1;SDS_P2;PMS_P1;PMS_P2;Temp;Humidity;BMP_temperature;BMP_pressure;BME280_temperature;BME280_humidity;BME280_pressure;Samples;Min_cycle;Max_cycle;Signal;HPM_P1;HPM_P2
2023/12/06 00:00:40;;;;;;;10.48;6.50;;;12.10;90.10;;;;;;5093581;28;20028;-81
2023/12/06 00:03:06;;;;;;;8.90;6.53;;;12.10;90.10;;;;;;5092094;28;20059;-81
2023/12/06 00:05:32;;;;;;;10.98;7.22;;;12.10;90.20;;;;;;5092889;28;20031;-78
2023/12/06 00:07:58;;;;;;;11.48;6.20;;;12.10;90.20;;;;;;5096327;28;20032;-81
2023/12/06 00:10:23;;;;;;;7.80;5.50;;;12.10;90.30;;;;;;5104103;28;20176;-79
2023/12/06 00:12:49;;;;;;;9.23;5.93;;;12.10;90.30;;;;;;5113290;28;20051;-80
2023/12/06 00:15:15;;;;;;;9.77;4.80;;;12.10;90.30;;;;;;5113670;28;20023;-80
2023/12/06 00:17:41;;;;;;;9.35;5.10;;;12.10;90.10;;;;;;5113386;28;20035;-81
2023/12/06 00:20:07;;;;;;;11.13;5.63;;;12.10;90.00;;;;;;5113937;28;20027;-79
2023/12/06 00:22:33;;;;;;;10.95;6.10;;;12.10;90.00;;;;;;5114202;28;20111;-80
2023/12/06 00:24:59;;;;;;;14.65;6.88;;;12.10;90.00;;;;;;5113081;28;20059;-80
2023/12/06 00:27:24;;;;;;;11.02;6.93;;;12.10;90.10;;;;;;5112755;28;20031;-79
2023/12/06 00:29:50;;;;;;;10.25;6.47;;;12.10;90.10;;;;;;5113420;28;20066;-79
2023/12/06 00:32:16;;;;;;;10.68;6.88;;;12.00;90.20;;;;;;5112970;28;20127;-80
2023/12/06 00:34:41;;;;;;;9.20;6.63;;;11.90;90.20;;;;;;5112653;28;20028;-80
2023/12/06 00:37:07;;;;;;;13.15;7.00;;;11.80;90.40;;;;;;5112857;28;20042;-80
2023/12/06 00:39:33;;;;;;;9.43;7.20;;;11.70;90.50;;;;;;5111393;28;20024;-80
2023/12/06 00:41:59;;;;;;;13.20;7.32;;;11.70;90.70;;;;;;5112938;28;20407;-80
2023/12/06 00:44:25;;;;;;;8.45;6.35;;;11.70;90.70;;;;;;5100704;28;20067;-80
2023/12/06 00:46:50;;;;;;;10.82;7.05;;;11.70;90.60;;;;;;5099280;28;20060;-80
2023/12/06 00:49:18;;;;;;;9.80;6.78;;;11.60;90.70;;;;;;5099446;28;20038;-80
2023/12/06 00:51:43;;;;;;;10.07;6.55;;;11.50;90.60;;;;;;5099436;28;20044;-80
2023/12/06 00:54:09;;;;;;;9.10;7.07;;;11.50;90.70;;;;;;5099637;28;20549;-81
2023/12/06 00:56:35;;;;;;;10.43;7.07;;;11.40;90.90;;;;;;5098851;28;20028;-79
2023/12/06 00:59:01;;;;;;;9.85;7.20;;;11.40;90.90;;;;;;5099438;28;20112;-80
2023/12/06 01:01:26;;;;;;;10.88;6.88;;;11.30;90.90;;;;;;5098030;28;20126;-80
2023/12/06 01:03:52;;;;;;;11.60;6.72;;;11.30;90.90;;;;;;5099424;28;20036;-79
2023/12/06 01:06:18;;;;;;;10.80;7.10;;;11.20;90.80;;;;;;5099663;28;20032;-80
2023/12/06 01:08:44;;;;;;;10.05;7.00;;;11.20;90.90;;;;;;5099469;28;20036;-81
2023/12/06 01:11:09;;;;;;;9.18;6.85;;;11.10;90.90;;;;;;5099516;28;20462;-80
2023/12/06 01:13:35;;;;;;;11.95;6.72;;;11.10;91.00;;;;;;5099154;28;20044;-80
2023/12/06 01:16:01;;;;;;;11.82;6.82;;;11.20;91.10;;;;;;5099163;28;20397;-80
2023/12/06 01:18:27;;;;;;;11.27;7.75;;;11.10;91.00;;;;;;5099005;28;20089;-80
2023/12/06 01:20:52;;;;;;;9.57;6.85;;;11.10;90.90;;;;;;5099031;28;20036;-78
2023/12/06 01:23:18;;;;;;;10.65;6.97;;;11.00;90.90;;;;;;5098891;28;20074;-79
2023/12/06 01:25:44;;;;;;;10.50;7.47;;;11.00;90.90;;;;;;5098792;28;20032;-80
2023/12/06 01:28:09;;;;;;;11.77;6.93;;;11.00;90.90;;;;;;5098574;28;20028;-79
2023/12/06 01:30:36;;;;;;;9.73;6.90;;;11.00;90.80;;;;;;5098472;28;20408;-81
2023/12/06 01:33:01;;;;;;;11.35;7.55;;;11.00;91.00;;;;;;5098662;28;20036;-80
2023/12/06 01:35:27;;;;;;;10.35;7.70;;;10.90;90.80;;;;;;5098831;28;20456;-81
2023/12/06 01:37:53;;;;;;;11.68;7.63;;;10.80;91.10;;;;;;5098979;28;20028;-79
2023/12/06 01:40:19;;;;;;;9.85;7.20;;;10.70;91.10;;;;;;5099041;28;20078;-80
2023/12/06 01:42:46;;;;;;;10.75;6.90;;;10.80;91.10;;;;;;5097340;28;20081;-80
2023/12/06 01:45:12;;;;;;;10.00;6.80;;;10.80;91.10;;;;;;5099094;28;20059;-80
2023/12/06 01:47:38;;;;;;;11.95;7.60;;;10.80;91.10;;;;;;5098663;28;20024;-80
2023/12/06 01:50:05;;;;;;;10.25;7.13;;;10.80;91.10;;;;;;5098670;28;20044;-79
2023/12/06 01:52:31;;;;;;;11.25;8.07;;;10.80;91.20;;;;;;5098396;28;20032;-80
2023/12/06 01:54:58;;;;;;;10.85;7.78;;;10.80;91.10;;;;;;5098791;28;20035;-79
2023/12/06 01:57:31;;;;;;;10.07;8.38;;;10.80;91.10;;;;;;5093462;28;20485;-78
2023/12/06 01:59:58;;;;;;;8.55;6.50;;;10.70;91.10;;;;;;5095382;28;20032;-79
2023/12/06 02:02:25;;;;;;;10.65;8.20;;;10.70;91.20;;;;;;5095251;28;20027;-79
2023/12/06 02:04:51;;;;;;;11.18;8.38;;;10.70;91.20;;;;;;5095132;28;20035;-79
2023/12/06 02:07:17;;;;;;;12.02;7.88;;;10.60;91.30;;;;;;5094771;28;20044;-81
2023/12/06 02:09:44;;;;;;;10.30;8.15;;;10.60;91.30;;;;;;5095612;28;20223;-80
2023/12/06 02:12:10;;;;;;;9.77;8.38;;;10.50;91.40;;;;;;5095118;28;20051;-80
2023/12/06 02:14:35;;;;;;;11.70;8.50;;;10.50;91.50;;;;;;5094771;28;20032;-80
2023/12/06 02:17:03;;;;;;;11.38;8.63;;;10.40;91.50;;;;;;5095095;28;20347;-80
2023/12/06 02:19:29;;;;;;;11.57;8.40;;;10.30;91.80;;;;;;5095053;28;20024;-79
2023/12/06 02:21:56;;;;;;;11.32;8.90;;;10.30;91.70;;;;;;5095189;28;20837;-81
2023/12/06 02:24:25;;;;;;;12.15;8.20;;;10.20;91.80;;;;;;5093699;28;20233;-79
2023/12/06 02:26:54;;;;;;;13.13;8.45;;;10.20;91.80;;;;;;5094739;28;20095;-79
2023/12/06 02:29:20;;;;;;;12.80;8.27;;;10.20;91.80;;;;;;5094865;28;20027;-79
2023/12/06 02:31:45;;;;;;;14.02;8.77;;;10.30;91.80;;;;;;5094763;28;20477;-80
2023/12/06 02:34:20;;;;;;;14.15;8.32;;;10.30;91.70;;;;;;5094661;28;20093;-81
2023/12/06 02:36:50;;;;;;;11.50;7.60;;;10.30;91.80;;;;;;5094629;28;20055;-80
2023/12/06 02:39:17;;;;;;;12.18;8.43;;;10.40;91.80;;;;;;5093754;28;20040;-79
2023/12/06 02:41:43;;;;;;;10.93;7.80;;;10.40;91.80;;;;;;5094968;28;20024;-81
2023/12/06 02:44:09;;;;;;;12.80;8.15;;;10.40;91.80;;;;;;5094782;28;20036;-79
2023/12/06 02:46:36;;;;;;;10.35;7.72;;;10.50;91.80;;;;;;5094657;28;20358;-79
2023/12/06 02:49:02;;;;;;;11.60;8.45;;;10.50;91.80;;;;;;5095180;28;20499;-80
2023/12/06 02:51:28;;;;;;;9.05;7.47;;;10.60;91.80;;;;;;5094773;28;20028;-82
2023/12/06 02:53:54;;;;;;;10.38;7.80;;;10.60;91.80;;;;;;5095809;28;20185;-80
2023/12/06 02:56:20;;;;;;;11.07;8.18;;;10.60;91.70;;;;;;5094601;28;20035;-79
2023/12/06 02:58:46;;;;;;;14.73;8.13;;;10.70;91.80;;;;;;5094378;28;20058;-79
2023/12/06 03:01:11;;;;;;;11.32;8.38;;;10.70;91.80;;;;;;5094129;28;20032;-79
2023/12/06 03:03:37;;;;;;;11.88;7.63;;;10.70;91.70;;;;;;5094038;28;20450;-79
2023/12/06 03:06:03;;;;;;;11.80;9.68;;;10.70;91.70;;;;;;5094116;28;20516;-80
2023/12/06 03:08:29;;;;;;;11.48;8.45;;;10.80;91.70;;;;;;5092946;28;20043;-81
2023/12/06 03:10:54;;;;;;;12.43;8.27;;;10.80;91.70;;;;;;5093980;28;20066;-79
2023/12/06 03:13:20;;;;;;;12.35;8.30;;;10.90;91.70;;;;;;5093397;28;20048;-81
2023/12/06 03:15:46;;;;;;;10.27;8.07;;;10.90;91.70;;;;;;5094042;28;20036;-80
2023/12/06 03:18:11;;;;;;;9.80;7.90;;;11.00;91.70;;;;;;5093962;28;20541;-81
2023/12/06 03:20:37;;;;;;;11.27;7.32;;;11.00;91.50;;;;;;5093054;28;20145;-79
2023/12/06 03:23:03;;;;;;;12.18;7.70;;;11.00;91.70;;;;;;5093815;28;20043;-79
2023/12/06 03:25:29;;;;;;;11.70;7.53;;;11.00;91.70;;;;;;5079485;28;20068;-80
2023/12/06 03:27:55;;;;;;;10.68;7.50;;;11.00;91.60;;;;;;5073237;28;20450;-80
2023/12/06 03:30:21;;;;;;;10.10;7.05;;;11.00;91.50;;;;;;5073165;28;20025;-79
2023/12/06 03:32:46;;;;;;;11.07;6.72;;;11.00;91.60;;;;;;5073340;28;20079;-80
2023/12/06 03:35:12;;;;;;;10.48;7.20;;;11.00;91.50;;;;;;5072731;28;20032;-79
2023/12/06 03:37:38;;;;;;;10.45;7.80;;;11.00;91.50;;;;;;5072985;28;20033;-80
2023/12/06 03:40:04;;;;;;;11.20;8.02;;;11.00;91.50;;;;;;5073127;28;20032;-81
2023/12/06 03:42:29;;;;;;;11.93;8.60;;;11.00;91.50;;;;;;5073057;28;20037;-81
2023/12/06 03:44:55;;;;;;;10.57;7.90;;;11.00;91.40;;;;;;5071708;28;20402;-80
2023/12/06 03:47:21;;;;;;;11.18;8.30;;;11.00;91.30;;;;;;5073134;28;20043;-80
2023/12/06 03:49:47;;;;;;;11.30;8.10;;;10.90;91.40;;;;;;5073128;28;20108;-79
2023/12/06 03:52:12;;;;;;;11.65;8.50;;;10.90;91.50;;;;;;5073164;28;20062;-80
2023/12/06 03:54:38;;;;;;;16.38;9.25;;;10.80;91.50;;;;;;5072859;28;20029;-79
2023/12/06 03:57:04;;;;;;;13.52;8.52;;;10.80;91.50;;;;;;5072880;28;20046;-79
2023/12/06 03:59:30;;;;;;;9.90;8.50;;;10.90;91.60;;;;;;5073087;28;20032;-80
2023/12/06 04:01:55;;;;;;;12.10;8.60;;;10.90;91.70;;;;;;5072889;28;20195;-79
2023/12/06 04:04:21;;;;;;;11.00;8.60;;;10.90;91.60;;;;;;5072688;28;20445;-78
2023/12/06 04:06:47;;;;;;;11.25;8.48;;;10.90;91.60;;;;;;5072579;28;20037;-79
2023/12/06 04:09:13;;;;;;;11.80;8.07;;;10.90;91.50;;;;;;5073271;28;20032;-80
2023/12/06 04:11:38;;;;;;;10.27;8.52;;;10.90;91.50;;;;;;5072461;28;20086;-80
2023/12/06 04:14:04;;;;;;;10.23;7.70;;;10.90;91.50;;;;;;5072488;28;20124;-80
2023/12/06 04:16:30;;;;;;;12.05;8.38;;;10.90;91.40;;;;;;5072678;28;20032;-79
2023/12/06 04:18:56;;;;;;;10.73;8.25;;;10.90;91.50;;;;;;5072254;28;20033;-79
2023/12/06 04:21:22;;;;;;;12.45;8.52;;;10.90;91.50;;;;;;5072554;28;20036;-81
2023/12/06 04:23:48;;;;;;;17.85;10.00;;;10.90;91.50;;;;;;5072664;28;20073;-81
2023/12/06 04:26:14;;;;;;;11.52;8.32;;;10.90;91.50;;;;;;5072843;28;20493;-80
2023/12/06 04:28:40;;;;;;;13.02;8.93;;;10.90;91.50;;;;;;5072679;28;20035;-79
2023/12/06 04:31:05;;;;;;;11.27;8.60;;;10.80;91.60;;;;;;5072696;28;20040;-79
2023/12/06 04:33:31;;;;;;;12.20;9.02;;;10.80;91.60;;;;;;5072379;28;20048;-81
2023/12/06 04:35:57;;;;;;;13.20;9.65;;;10.70;91.50;;;;;;5072552;28;20035;-78
2023/12/06 04:38:23;;;;;;;14.80;9.48;;;10.70;91.60;;;;;;5072283;28;20043;-79
2023/12/06 04:40:48;;;;;;;11.52;9.13;;;10.70;91.60;;;;;;5072163;28;20084;-79
2023/12/06 04:43:16;;;;;;;12.82;10.02;;;10.80;91.70;;;;;;5072443;28;20485;-79
2023/12/06 04:45:42;;;;;;;12.88;10.07;;;10.70;91.80;;;;;;5072608;28;20047;-81
2023/12/06 04:48:08;;;;;;;17.63;11.05;;;10.60;91.80;;;;;;5072221;28;20033;-80
2023/12/06 04:50:33;;;;;;;13.68;10.20;;;10.60;91.80;;;;;;5071013;28;20120;-80
2023/12/06 04:52:59;;;;;;;14.02;10.13;;;10.60;91.70;;;;;;5071941;28;20486;-80
2023/12/06 04:55:25;;;;;;;12.20;9.88;;;10.60;91.90;;;;;;5071198;28;20462;-80
2023/12/06 04:57:51;;;;;;;13.50;9.52;;;10.60;91.80;;;;;;5072243;28;20032;-81
2023/12/06 05:00:17;;;;;;;13.88;10.35;;;10.60;91.70;;;;;;5072438;28;20032;-80
2023/12/06 05:02:43;;;;;;;11.15;9.25;;;10.60;91.80;;;;;;5072285;28;20430;-79
2023/12/06 05:05:09;;;;;;;11.63;9.32;;;10.60;91.80;;;;;;5072727;28;20071;-81
2023/12/06 05:07:35;;;;;;;12.88;9.45;;;10.60;91.70;;;;;;5072382;28;20048;-80
2023/12/06 05:10:00;;;;;;;12.48;9.30;;;10.50;91.70;;;;;;5072507;28;20079;-77
2023/12/06 05:12:26;;;;;;;10.63;8.43;;;10.40;91.70;;;;;;5072125;28;20048;-81
2023/12/06 05:14:52;;;;;;;11.90;8.45;;;10.30;91.60;;;;;;5072339;28;20021;-80
2023/12/06 05:17:17;;;;;;;11.68;9.05;;;10.20;91.80;;;;;;5072442;28;20098;-81
2023/12/06 05:19:43;;;;;;;13.02;9.05;;;10.20;91.80;;;;;;5072268;28;20032;-80
2023/12/06 05:22:09;;;;;;;11.25;8.82;;;10.10;91.80;;;;;;5072313;28;20037;-80
2023/12/06 05:24:34;;;;;;;10.77;8.90;;;10.10;91.90;;;;;;5072033;28;20063;-79
2023/12/06 05:27:00;;;;;;;12.90;9.90;;;10.00;91.80;;;;;;5071815;28;20037;-80
2023/12/06 05:29:26;;;;;;;15.80;8.68;;;10.00;91.80;;;;;;5072348;28;20029;-81
2023/12/06 05:31:51;;;;;;;11.00;8.52;;;10.00;91.90;;;;;;5074496;28;20175;-80
2023/12/06 05:34:19;;;;;;;13.13;9.43;;;10.00;91.80;;;;;;5074668;28;20033;-79
2023/12/06 05:36:44;;;;;;;12.70;9.05;;;10.00;91.90;;;;;;5075937;28;20077;-80
2023/12/06 05:39:10;;;;;;;13.45;8.90;;;10.00;92.00;;;;;;5075880;28;20491;-80
2023/12/06 05:41:36;;;;;;;14.55;9.82;;;10.00;92.00;;;;;;5075846;28;20033;-81
2023/12/06 05:44:06;;;;;;;13.10;9.77;;;10.00;91.90;;;;;;5076114;28;20040;-80
2023/12/06 05:46:32;;;;;;;13.02;9.60;;;9.90;92.40;;;;;;5075849;28;20416;-80
2023/12/06 05:48:58;;;;;;;11.00;9.38;;;9.90;92.40;;;;;;5075727;28;20131;-80
2023/12/06 05:51:24;;;;;;;12.60;9.85;;;9.90;92.40;;;;;;5075582;28;20133;-80
2023/12/06 05:53:50;;;;;;;15.70;10.38;;;9.90;92.40;;;;;;5075047;28;20052;-81
2023/12/06 05:56:16;;;;;;;14.55;10.43;;;9.90;92.40;;;;;;5076105;28;20462;-79
2023/12/06 05:58:42;;;;;;;14.80;9.20;;;9.80;92.40;;;;;;5075564;28;20043;-80
2023/12/06 06:01:08;;;;;;;10.73;9.23;;;9.80;92.40;;;;;;5075571;28;20031;-80
2023/12/06 06:03:34;;;;;;;17.92;10.63;;;9.70;92.40;;;;;;5075482;28;20036;-80
2023/12/06 06:06:09;;;;;;;13.52;10.05;;;9.80;92.60;;;;;;5075264;28;20029;-81
2023/12/06 06:08:35;;;;;;;15.05;10.20;;;9.80;92.40;;;;;;5074167;28;20032;-80
2023/12/06 06:11:01;;;;;;;12.50;9.52;;;9.70;92.50;;;;;;5075592;28;20047;-81
2023/12/06 06:13:29;;;;;;;13.85;9.95;;;9.70;92.60;;;;;;5075435;28;20545;-80
2023/12/06 06:15:58;;;;;;;13.98;10.40;;;9.70;92.60;;;;;;5074058;28;20037;-80
2023/12/06 06:18:24;;;;;;;15.32;9.95;;;9.60;92.60;;;;;;5075393;28;20117;-81
2023/12/06 06:20:50;;;;;;;13.73;9.40;;;9.60;92.60;;;;;;5075576;28;20474;-81
2023/12/06 06:23:16;;;;;;;13.48;9.63;;;9.50;92.80;;;;;;5075291;28;20032;-81
2023/12/06 06:25:41;;;;;;;14.48;9.40;;;9.50;92.80;;;;;;5075154;28;20055;-79
2023/12/06 06:28:07;;;;;;;15.20;11.15;;;9.60;92.80;;;;;;5075382;28;20039;-80
2023/12/06 06:30:33;;;;;;;13.25;9.70;;;9.60;92.70;;;;;;5075066;28;20032;-81
2023/12/06 06:32:58;;;;;;;15.93;9.88;;;9.60;92.60;;;;;;5074989;28;20082;-81
2023/12/06 06:35:24;;;;;;;12.57;8.93;;;9.60;92.60;;;;;;5074007;28;20064;-81
2023/12/06 06:37:50;;;;;;;14.98;9.43;;;9.60;92.50;;;;;;5073440;28;20040;-83
2023/12/06 06:40:16;;;;;;;15.15;9.98;;;9.50;92.50;;;;;;5073458;28;20078;-80
2023/12/06 06:42:42;;;;;;;15.43;11.25;;;9.50;92.60;;;;;;5074522;28;20117;-81
2023/12/06 06:45:11;;;;;;;17.10;11.15;;;9.60;92.70;;;;;;5074928;28;20039;-82
2023/12/06 06:47:37;;;;;;;13.65;10.65;;;9.60;92.50;;;;;;5073186;28;20036;-81
2023/12/06 06:50:04;;;;;;;14.88;10.27;;;9.90;92.50;;;;;;5075740;28;20197;-83
2023/12/06 06:52:32;;;;;;;15.07;10.35;;;10.10;91.70;;;;;;5089082;28;20123;-82
2023/12/06 06:54:58;;;;;;;18.38;11.75;;;10.40;91.40;;;;;;5094926;28;20097;-79
2023/12/06 06:57:23;;;;;;;13.73;11.00;;;10.80;91.30;;;;;;5094830;28;20024;-84
2023/12/06 06:59:49;;;;;;;17.23;12.82;;;11.20;90.90;;;;;;5093564;28;20043;-82
2023/12/06 07:02:16;;;;;;;19.50;11.32;;;11.50;90.50;;;;;;5078193;28;20040;-83
2023/12/06 07:04:43;;;;;;;14.80;11.18;;;11.90;90.30;;;;;;5074467;28;20113;-85
2023/12/06 07:07:09;;;;;;;12.63;10.43;;;12.10;89.70;;;;;;5073586;28;20151;-86
2023/12/06 07:09:34;;;;;;;12.73;10.52;;;12.40;89.00;;;;;;5081779;28;20028;-85
2023/12/06 07:12:00;;;;;;;14.98;10.82;;;12.60;88.40;;;;;;5083603;28;20040;-86
2023/12/06 07:14:26;;;;;;;18.73;10.32;;;13.00;87.60;;;;;;5074252;28;20139;-80
2023/12/06 07:16:53;;;;;;;12.20;9.35;;;13.00;87.00;;;;;;5076310;28;20033;-81
2023/12/06 07:19:18;;;;;;;12.85;8.98;;;12.70;87.00;;;;;;5075950;28;20555;-80
2023/12/06 07:21:44;;;;;;;16.30;10.82;;;12.30;87.20;;;;;;5075771;28;20028;-82
2023/12/06 07:24:11;;;;;;;16.40;10.82;;;12.20;87.50;;;;;;5073915;28;20466;-83
2023/12/06 07:26:37;;;;;;;23.10;14.95;;;12.30;87.90;;;;;;5073215;28;20025;-82
2023/12/06 07:29:03;;;;;;;31.55;17.73;;;12.00;87.70;;;;;;5073445;28;20024;-81
2023/12/06 07:31:29;;;;;;;34.08;20.40;;;11.60;88.20;;;;;;5073269;28;20033;-82
2023/12/06 07:33:55;;;;;;;31.80;20.58;;;11.40;88.60;;;;;;5073172;28;20434;-82
2023/12/06 07:36:21;;;;;;;23.98;16.73;;;11.10;89.00;;;;;;5076116;28;20029;-82
2023/12/06 07:38:47;;;;;;;21.02;14.98;;;10.90;89.20;;;;;;5071795;28;20059;-84
2023/12/06 07:41:13;;;;;;;24.23;14.15;;;10.70;89.40;;;;;;5073616;28;20020;-82
2023/12/06 07:43:39;;;;;;;19.63;11.95;;;10.50;89.60;;;;;;5082361;28;20040;-82
2023/12/06 07:46:05;;;;;;;16.30;12.10;;;10.40;89.70;;;;;;5093781;28;20032;-82
2023/12/06 07:48:33;;;;;;;18.00;10.98;;;10.30;90.00;;;;;;5094088;28;20039;-82
2023/12/06 07:50:59;;;;;;;16.60;10.90;;;10.30;89.80;;;;;;5093325;28;20378;-81
2023/12/06 07:53:25;;;;;;;15.55;9.85;;;10.20;90.00;;;;;;5092911;28;20043;-86
2023/12/06 07:55:54;;;;;;;13.75;9.63;;;10.20;89.80;;;;;;5093326;28;20028;-76
2023/12/06 07:58:24;;;;;;;18.85;9.65;;;10.10;90.00;;;;;;5092951;28;20397;-78
2023/12/06 08:00:50;;;;;;;16.08;9.63;;;10.10;90.00;;;;;;5093436;28;20477;-79
2023/12/06 08:03:16;;;;;;;15.27;9.95;;;10.00;90.00;;;;;;5092920;28;20400;-77
2023/12/06 08:05:42;;;;;;;17.73;9.57;;;10.10;90.00;;;;;;5098677;28;20028;-76
2023/12/06 08:08:08;;;;;;;18.40;9.35;;;10.10;90.00;;;;;;5112683;28;20024;-79
2023/12/06 08:10:34;;;;;;;14.98;9.43;;;10.20;90.00;;;;;;5111692;28;20115;-80
2023/12/06 08:13:00;;;;;;;14.23;9.00;;;10.30;89.80;;;;;;5112678;28;20051;-80
2023/12/06 08:15:28;;;;;;;16.70;9.30;;;10.40;89.80;;;;;;5113176;28;20063;-80
2023/12/06 08:17:55;;;;;;;14.90;8.52;;;10.40;89.40;;;;;;5113186;28;20063;-82
2023/12/06 08:20:20;;;;;;;13.48;8.75;;;10.40;89.40;;;;;;5113786;28;20110;-84
2023/12/06 08:22:46;;;;;;;13.45;8.23;;;10.50;89.50;;;;;;5113551;28;20063;-80
2023/12/06 08:25:12;;;;;;;14.45;8.43;;;10.40;89.00;;;;;;5112995;28;20541;-82
2023/12/06 08:27:38;;;;;;;15.07;8.23;;;10.40;89.30;;;;;;5113403;28;20555;-80
2023/12/06 08:30:06;;;;;;;13.00;7.82;;;10.40;89.30;;;;;;5113895;28;20031;-81
2023/12/06 08:32:32;;;;;;;13.57;7.93;;;10.30;89.60;;;;;;5113209;28;20556;-83
2023/12/06 08:34:58;;;;;;;18.15;7.85;;;10.30;89.20;;;;;;5111801;28;20077;-80
2023/12/06 08:37:25;;;;;;;17.17;7.80;;;10.30;89.20;;;;;;5113165;28;20036;-80
2023/12/06 08:39:51;;;;;;;15.60;6.97;;;10.30;88.90;;;;;;5113131;28;20507;-78
2023/12/06 08:42:16;;;;;;;13.02;7.57;;;10.30;88.90;;;;;;5112996;28;20602;-77
2023/12/06 08:44:42;;;;;;;12.57;7.70;;;10.10;88.20;;;;;;5111881;28;20043;-81
2023/12/06 08:47:12;;;;;;;13.32;6.93;;;10.10;88.70;;;;;;5114047;28;20031;-80
2023/12/06 08:49:38;;;;;;;13.05;7.85;;;10.10;88.60;;;;;;5113025;28;20039;-78
2023/12/06 08:52:05;;;;;;;14.88;8.65;;;10.10;88.80;;;;;;5112645;28;20065;-78
2023/12/06 08:54:32;;;;;;;10.15;7.25;;;10.20;88.60;;;;;;5112306;28;20027;-79
2023/12/06 08:56:58;;;;;;;13.43;7.60;;;10.20;88.20;;;;;;5112312;28;21031;-77
2023/12/06 08:59:23;;;;;;;14.60;8.05;;;10.20;88.10;;;;;;5111994;28;20135;-78
2023/12/06 09:01:49;;;;;;;12.32;8.05;;;10.20;88.30;;;;;;5111338;28;20028;-80
2023/12/06 09:04:15;;;;;;;14.07;7.60;;;10.10;88.00;;;;;;5112725;28;20397;-86
2023/12/06 09:06:40;;;;;;;16.00;8.70;;;10.20;88.30;;;;;;5116631;28;20493;-81
2023/12/06 09:09:07;;;;;;;12.40;8.10;;;10.10;87.90;;;;;;5117142;28;20039;-82
2023/12/06 09:11:33;;;;;;;15.60;8.55;;;10.10;88.00;;;;;;5116711;28;20073;-81
2023/12/06 09:14:00;;;;;;;14.25;7.78;;;10.20;88.50;;;;;;5116536;28;20050;-83
2023/12/06 09:16:25;;;;;;;19.10;9.00;;;10.30;88.10;;;;;;5116839;28;20036;-80
2023/12/06 09:18:51;;;;;;;11.45;7.97;;;10.30;87.90;;;;;;5117019;28;20027;-80
2023/12/06 09:21:17;;;;;;;17.25;7.93;;;10.30;87.60;;;;;;5117519;28;20042;-85
2023/12/06 09:23:42;;;;;;;12.90;8.77;;;10.30;87.60;;;;;;5119096;27;20028;-79
2023/12/06 09:26:09;;;;;;;15.20;7.57;;;10.40;87.50;;;;;;5119814;28;20104;-79
2023/12/06 09:28:38;;;;;;;19.60;8.13;;;10.50;87.20;;;;;;5120140;28;20039;-85
2023/12/06 09:31:05;;;;;;;11.15;7.63;;;10.40;87.10;;;;;;5119988;27;20040;-83
2023/12/06 09:33:31;;;;;;;14.88;7.90;;;10.50;87.60;;;;;;5119596;28;20062;-80
2023/12/06 09:35:57;;;;;;;10.80;5.93;;;10.60;87.20;;;;;;5119676;28;20055;-79
2023/12/06 09:38:23;;;;;;;12.90;5.90;;;10.70;86.50;;;;;;5120061;28;20036;-85
2023/12/06 09:40:48;;;;;;;14.45;6.50;;;10.70;86.40;;;;;;5119569;28;20073;-85
2023/12/06 09:43:17;;;;;;;9.07;5.95;;;10.80;86.10;;;;;;5120908;28;20392;-80
2023/12/06 09:45:43;;;;;;;11.82;6.20;;;10.70;85.40;;;;;;5120145;28;20089;-80
2023/12/06 09:48:09;;;;;;;16.52;6.35;;;10.80;85.40;;;;;;5119925;28;20047;-79
2023/12/06 09:50:35;;;;;;;10.10;6.32;;;10.80;85.40;;;;;;5119016;28;20027;-77
2023/12/06 09:53:01;;;;;;;10.75;5.70;;;11.00;85.50;;;;;;5119534;28;20028;-82
2023/12/06 09:55:31;;;;;;;11.70;6.45;;;11.10;85.00;;;;;;5120284;28;20035;-79
2023/12/06 09:57:57;;;;;;;11.57;6.40;;;11.20;84.70;;;;;;5120620;28;20458;-78
2023/12/06 10:00:23;;;;;;;12.15;5.75;;;11.40;84.40;;;;;;5118987;28;20106;-78
2023/12/06 10:02:53;;;;;;;14.73;6.00;;;11.40;83.60;;;;;;5118444;28;20032;-80
2023/12/06 10:05:19;;;;;;;8.95;5.68;;;11.50;83.40;;;;;;5118956;28;20034;-77
2023/12/06 10:07:46;;;;;;;9.30;5.65;;;11.70;83.50;;;;;;5119655;28;20028;-75
2023/12/06 10:10:16;;;;;;;12.55;6.35;;;11.80;83.10;;;;;;5119007;28;20076;-80
2023/12/06 10:12:58;;;;;;;15.23;5.80;;;11.90;83.00;;;;;;5117804;28;20047;-86
2023/12/06 10:15:25;;;;;;;13.88;6.45;;;12.10;82.70;;;;;;5116962;28;20040;-79
2023/12/06 10:17:51;;;;;;;9.05;5.68;;;12.30;82.00;;;;;;5119234;28;20031;-82
2023/12/06 10:20:20;;;;;;;13.38;6.43;;;12.30;81.60;;;;;;5118954;28;20457;-83
2023/12/06 10:22:47;;;;;;;11.57;5.22;;;12.30;81.20;;;;;;5118065;28;20092;-82
2023/12/06 10:25:13;;;;;;;8.68;5.65;;;12.30;80.20;;;;;;5116852;28;20063;-81
2023/12/06 10:27:39;;;;;;;12.32;5.97;;;12.30;80.80;;;;;;5118409;28;20020;-83
2023/12/06 10:30:05;;;;;;;11.73;6.53;;;12.40;80.60;;;;;;5117402;28;20032;-83
2023/12/06 10:32:32;;;;;;;10.82;6.35;;;12.50;80.70;;;;;;5118208;28;20032;-82
2023/12/06 10:35:00;;;;;;;12.88;6.38;;;12.60;79.90;;;;;;5117294;28;20039;-82
2023/12/06 10:37:27;;;;;;;12.32;6.57;;;12.70;80.50;;;;;;5118781;28;20115;-83
2023/12/06 10:40:00;;;;;;;12.43;6.60;;;12.70;79.80;;;;;;5115674;28;20430;-83
2023/12/06 10:42:32;;;;;;;15.20;6.30;;;12.70;80.00;;;;;;5115919;27;20165;-84
2023/12/06 10:45:00;;;;;;;10.88;6.10;;;12.80;80.10;;;;;;5116314;28;20115;-82
2023/12/06 10:47:26;;;;;;;8.23;5.30;;;12.90;79.80;;;;;;5116364;28;20485;-83
2023/12/06 10:49:54;;;;;;;10.98;5.63;;;13.10;79.10;;;;;;5117105;28;20036;-83
2023/12/06 10:52:21;;;;;;;10.25;4.97;;;13.10;78.70;;;;;;5116343;28;20044;-83
2023/12/06 10:54:47;;;;;;;12.80;5.97;;;13.10;77.80;;;;;;5092164;28;20039;-81
2023/12/06 10:57:14;;;;;;;9.30;5.95;;;13.10;78.00;;;;;;5087331;28;20046;-83
2023/12/06 10:59:43;;;;;;;11.43;5.43;;;13.20;77.30;;;;;;5075832;28;20112;-81
2023/12/06 11:02:12;;;;;;;10.38;5.43;;;13.20;77.50;;;;;;5074175;28;20032;-84
2023/12/06 11:04:57;;;;;;;12.27;5.55;;;13.30;77.20;;;;;;5073307;28;20068;-82
2023/12/06 11:08:04;;;;;;;8.30;4.88;;;13.40;76.90;;;;;;5074918;28;20116;-84
2023/12/06 11:10:57;;;;;;;8.90;4.63;;;13.40;77.20;;;;;;5074299;28;20052;-83
2023/12/06 11:13:52;;;;;;;10.18;4.55;;;13.30;76.50;;;;;;5081945;28;20045;-83
2023/12/06 11:16:56;;;;;;;14.02;4.63;;;13.20;76.50;;;;;;5077585;28;20505;-81
2023/12/06 11:19:23;;;;;;;10.07;4.90;;;13.20;76.40;;;;;;5074760;28;20033;-82
2023/12/06 11:21:49;;;;;;;15.40;4.80;;;13.30;76.10;;;;;;5082037;28;20032;-82
2023/12/06 11:24:15;;;;;;;7.75;4.63;;;13.40;76.40;;;;;;5084301;28;20457;-82
2023/12/06 11:26:41;;;;;;;11.52;4.82;;;13.40;76.10;;;;;;5083742;28;20035;-80
2023/12/06 11:29:07;;;;;;;9.68;4.60;;;13.40;75.80;;;;;;5082043;28;20040;-82
2023/12/06 11:31:37;;;;;;;12.00;4.93;;;13.40;75.70;;;;;;5083930;28;20044;-83
2023/12/06 11:34:05;;;;;;;7.22;4.57;;;13.40;75.50;;;;;;5092592;28;20040;-83
2023/12/06 11:36:31;;;;;;;8.75;4.30;;;13.50;75.60;;;;;;5094226;28;20075;-82
2023/12/06 11:38:56;;;;;;;9.05;4.13;;;13.70;75.40;;;;;;5094626;28;20072;-82
2023/12/06 11:41:22;;;;;;;8.30;3.78;;;13.70;75.30;;;;;;5094121;28;20035;-82
2023/12/06 11:43:50;;;;;;;11.30;4.30;;;13.80;74.90;;;;;;5093640;28;20032;-82
2023/12/06 11:46:17;;;;;;;10.82;4.47;;;13.70;74.80;;;;;;5079962;28;20064;-84
2023/12/06 11:48:45;;;;;;;13.30;4.55;;;13.80;74.90;;;;;;5076498;28;20036;-81
2023/12/06 13:07:00;;;;;;;5.47;2.10;;;13.70;71.10;;;;;;5053828;28;20106;-81
2023/12/06 13:09:27;;;;;;;9.65;2.10;;;13.70;71.00;;;;;;5070049;28;20093;-80
2023/12/06 13:14:21;;;;;;;5.82;2.28;;;13.40;70.40;;;;;;5096458;22;20507;-81
2023/12/06 13:16:47;;;;;;;9.82;2.67;;;13.40;71.00;;;;;;5092426;28;20028;-81
2023/12/06 13:19:12;;;;;;;7.68;2.63;;;13.40;71.40;;;;;;5092393;28;20173;-82
2023/12/06 13:21:38;;;;;;;8.70;2.45;;;13.50;71.20;;;;;;5092119;28;20181;-81
2023/12/06 13:24:04;;;;;;;8.70;2.90;;;13.50;71.00;;;;;;5091891;28;20036;-81
2023/12/06 13:26:29;;;;;;;10.10;2.70;;;13.40;71.00;;;;;;5092055;28;20028;-81
2023/12/06 13:28:55;;;;;;;11.35;3.08;;;13.50;71.50;;;;;;5092741;28;20122;-81
2023/12/06 13:31:21;;;;;;;14.57;2.85;;;13.50;71.40;;;;;;5092103;28;20032;-80
2023/12/06 13:33:47;;;;;;;6.97;2.70;;;13.50;71.50;;;;;;5092701;28;20044;-81
2023/12/06 13:36:14;;;;;;;8.95;2.53;;;13.50;71.70;;;;;;5090500;28;20133;-81
2023/12/06 13:38:40;;;;;;;9.05;2.92;;;13.50;71.50;;;;;;5091814;28;20366;-79
2023/12/06 13:41:05;;;;;;;13.00;3.03;;;13.50;71.60;;;;;;5091883;28;20028;-81
2023/12/06 13:43:31;;;;;;;9.88;2.85;;;13.50;71.10;;;;;;5074525;28;20040;-81
2023/12/06 13:45:57;;;;;;;6.03;2.15;;;13.50;71.00;;;;;;5086603;28;20032;-81
2023/12/06 13:48:22;;;;;;;6.20;2.05;;;13.60;71.30;;;;;;5073146;28;20037;-80
2023/12/06 13:50:48;;;;;;;7.78;2.35;;;13.50;71.00;;;;;;5055133;28;20033;-81
2023/12/06 13:53:13;;;;;;;9.07;2.83;;;13.50;71.10;;;;;;5067015;28;20084;-81